RYR6FC LIBD-EBCI
Flight info
| Callsign | RYR6FC |
|---|---|
| Flight time | N/A |
| Altitude | 18000 |
| Route | PISIP L612 VIE/N0442F380 DCT VAPUP DCT PUL DCT NAKIT DCT PEVAL DCT MOBDO DCT SOTOV DCT KPT L608 TEDGO DCT IDOVI Z104 ODVUX/N0388F280 Z104 GESLO N852 LNO |
| Aircraft | B38M/M-SDE1FGHILORVWXY/HB1 |
Departure
| Time | 2026-05-04 10:44 |
|---|---|
| Airport | Bari Karol Wojtyła International Airport (LIBD) |
Arrival
| Time | N/A |
|---|---|
| Airport | Brussels South Charleroi Airport (EBCI) |
| Time | Latitude | Longitude | Altitude | Speed | Heading |
|---|---|---|---|---|---|
| 2026-05-04 10:12 | 41.13536 | 16.76339 | 145 ft | 0 kts | 160° |
| 2026-05-04 10:32 | 41.13570 | 16.76322 | 144 ft | 2 kts | 160° |
| 2026-05-04 10:33 | 41.13586 | 16.76321 | 143 ft | 2 kts | 212° |
| 2026-05-04 10:33 | 41.13598 | 16.76336 | 142 ft | 2 kts | 233° |
| 2026-05-04 10:33 | 41.13605 | 16.76351 | 142 ft | 1 kts | 244° |
| 2026-05-04 10:33 | 41.13606 | 16.76352 | 142 ft | 0 kts | 245° |
| 2026-05-04 10:37 | 41.13592 | 16.76309 | 143 ft | 9 kts | 249° |
| 2026-05-04 10:37 | 41.13567 | 16.76215 | 146 ft | 11 kts | 251° |
| 2026-05-04 10:37 | 41.13549 | 16.76117 | 149 ft | 9 kts | 281° |
| 2026-05-04 10:39 | 41.13507 | 16.75505 | 161 ft | 15 kts | 249° |
| 2026-05-04 10:39 | 41.13469 | 16.75370 | 161 ft | 17 kts | 249° |
| 2026-05-04 10:39 | 41.13428 | 16.75223 | 165 ft | 17 kts | 249° |
| 2026-05-04 10:40 | 41.13387 | 16.75084 | 170 ft | 15 kts | 249° |
| 2026-05-04 10:40 | 41.13350 | 16.74950 | 173 ft | 16 kts | 249° |
| 2026-05-04 10:40 | 41.13311 | 16.74812 | 180 ft | 15 kts | 249° |
| 2026-05-04 10:40 | 41.13274 | 16.74682 | 182 ft | 16 kts | 250° |
| 2026-05-04 10:41 | 41.13235 | 16.74542 | 191 ft | 16 kts | 249° |
| 2026-05-04 10:41 | 41.13196 | 16.74405 | 191 ft | 16 kts | 249° |
| 2026-05-04 10:41 | 41.13162 | 16.74263 | 191 ft | 17 kts | 268° |
| 2026-05-04 10:41 | 41.13224 | 16.74124 | 192 ft | 19 kts | 310° |
| 2026-05-04 10:42 | 41.13310 | 16.74135 | 185 ft | 10 kts | 75° |
| 2026-05-04 10:42 | 41.13334 | 16.74233 | 187 ft | 13 kts | 70° |
| 2026-05-04 10:42 | 41.13407 | 16.74489 | 182 ft | 63 kts | 69° |
| 2026-05-04 10:42 | 41.13650 | 16.75345 | 162 ft | 132 kts | 69° |
| 2026-05-04 10:43 | 41.14035 | 16.76702 | 272 ft | 173 kts | 69° |
| 2026-05-04 10:44 | 41.17873 | 16.89978 | 5080 ft | 263 kts | 55° |
| 2026-05-04 10:45 | 41.19223 | 16.91620 | 5837 ft | 264 kts | 24° |
| 2026-05-04 10:45 | 41.20989 | 16.92195 | 6762 ft | 265 kts | 360° |
| 2026-05-04 10:45 | 41.22814 | 16.91796 | 7572 ft | 268 kts | 346° |
| 2026-05-04 10:45 | 41.24615 | 16.91182 | 8361 ft | 273 kts | 346° |
| 2026-05-04 10:46 | 41.26492 | 16.90528 | 9200 ft | 277 kts | 345° |
| 2026-05-04 10:46 | 41.28342 | 16.89869 | 10012 ft | 281 kts | 345° |
| 2026-05-04 10:46 | 41.30255 | 16.89180 | 10624 ft | 292 kts | 345° |
| 2026-05-04 10:46 | 41.32278 | 16.88445 | 11031 ft | 310 kts | 345° |
| 2026-05-04 10:47 | 41.34394 | 16.87672 | 11663 ft | 318 kts | 345° |
| 2026-05-04 10:47 | 41.36527 | 16.86873 | 12539 ft | 320 kts | 342° |
| 2026-05-04 10:47 | 41.38456 | 16.85396 | 13337 ft | 326 kts | 319° |
| 2026-05-04 10:47 | 41.40021 | 16.83176 | 14149 ft | 332 kts | 314° |
| 2026-05-04 10:49 | 41.51142 | 16.66495 | 19284 ft | 357 kts | 312° |
| 2026-05-04 10:49 | 41.52789 | 16.64000 | 19938 ft | 359 kts | 312° |
| 2026-05-04 10:50 | 41.54433 | 16.61499 | 20571 ft | 362 kts | 312° |
| 2026-05-04 10:51 | 41.66330 | 16.43346 | 24639 ft | 379 kts | 312° |
| 2026-05-04 10:52 | 41.68065 | 16.40688 | 25144 ft | 380 kts | 312° |
| 2026-05-04 10:52 | 41.69810 | 16.38015 | 25639 ft | 382 kts | 312° |
| 2026-05-04 10:52 | 41.71554 | 16.35340 | 26127 ft | 384 kts | 312° |
| 2026-05-04 10:54 | 41.84037 | 16.16122 | 29257 ft | 397 kts | 311° |
| 2026-05-04 10:54 | 41.85851 | 16.13318 | 29709 ft | 398 kts | 311° |
| 2026-05-04 10:56 | 42.01447 | 15.97562 | 31988 ft | 416 kts | 329° |
| 2026-05-04 10:56 | 42.03966 | 15.95728 | 32269 ft | 419 kts | 329° |
| 2026-05-04 10:56 | 42.06534 | 15.93860 | 32588 ft | 421 kts | 329° |
| 2026-05-04 10:57 | 42.09106 | 15.91990 | 32916 ft | 423 kts | 329° |
| 2026-05-04 10:57 | 42.11701 | 15.90101 | 33259 ft | 424 kts | 329° |
| 2026-05-04 10:57 | 42.14290 | 15.88215 | 33673 ft | 423 kts | 329° |
| 2026-05-04 10:57 | 42.16879 | 15.86328 | 34086 ft | 422 kts | 329° |
| 2026-05-04 10:58 | 42.19459 | 15.84444 | 34428 ft | 421 kts | 329° |
| 2026-05-04 10:58 | 42.22034 | 15.82563 | 34771 ft | 421 kts | 329° |
| 2026-05-04 10:58 | 42.24607 | 15.80682 | 35109 ft | 420 kts | 329° |
| 2026-05-04 10:58 | 42.27176 | 15.78802 | 35440 ft | 420 kts | 329° |
| 2026-05-04 10:59 | 42.29738 | 15.76925 | 35765 ft | 419 kts | 329° |
| 2026-05-04 10:59 | 42.32290 | 15.75054 | 36081 ft | 418 kts | 329° |
| 2026-05-04 10:59 | 42.34842 | 15.73182 | 36386 ft | 418 kts | 329° |
| 2026-05-04 10:59 | 42.37398 | 15.71304 | 36681 ft | 417 kts | 329° |
| 2026-05-04 11:00 | 42.39953 | 15.69424 | 36984 ft | 417 kts | 329° |
| 2026-05-04 11:01 | 42.57787 | 15.56263 | 38155 ft | 418 kts | 329° |
| 2026-05-04 11:02 | 42.60334 | 15.54376 | 38146 ft | 417 kts | 329° |